Onil, Spain
Current Conditions -  °F | °C
As of 3:30 AM on Saturday 29 Nov 2014 (Local Time) from LEAL Reporting Station
Moderate Rain Moderate Rain  
Wind Chill: 63°   Ceiling: 4800
Heat Index: 63°   Visibility: 5mi
Dew Point: 59°   Wind: 12mph
Humidity: 88%   Direction: 100°E
Pressure: 29.23"   Gusts: NA
Location:  38.63°N, 0.67°W
Report Text: LEAL 290230Z 10010KT 080V140 8000 RA FEW025 BKN048 BKN060 17/15 Q0990 NOSIG
Loading
Personal Weather Stations






























Interactive Weather Map New forecast layout! Learn more

10-Day Weather Forecast

Advertisements
Track Severe Weather on mobile